Time;durP1;ratioP1;P1;durP2;ratioP2;P2;SDS_P1;SDS_P2;PMS_P1;PMS_P2;Temp;Humidity;BMP_temperature;BMP_pressure;BME280_temperature;BME280_humidity;BME280_pressure;Samples;Min_cycle;Max_cycle;Signal;HPM_P1;HPM_P2
2021/08/02 00:01:28;;;;;;;4.30;3.90;;;14.70;99.90;;;;;;4909719;29;20206;-77
2021/08/02 00:04:00;;;;;;;4.50;4.10;;;14.70;99.90;;;;;;4901629;29;20197;-77
2021/08/02 00:06:33;;;;;;;4.87;4.13;;;14.60;99.90;;;;;;4915765;29;20222;-77
2021/08/02 00:09:05;;;;;;;4.83;3.80;;;14.60;99.90;;;;;;4915763;29;20195;-77
2021/08/02 00:11:36;;;;;;;4.77;4.17;;;14.60;99.90;;;;;;4913775;29;20202;-77
2021/08/02 00:14:05;;;;;;;9.20;8.47;;;14.60;99.90;;;;;;4914493;29;20218;-77
2021/08/02 00:16:33;;;;;;;12.00;11.20;;;14.60;99.90;;;;;;4913330;29;20621;-78
2021/08/02 00:19:00;;;;;;;4.10;3.70;;;14.50;99.90;;;;;;4914571;29;20554;-77
2021/08/02 00:21:28;;;;;;;5.47;4.37;;;14.50;99.90;;;;;;4913696;29;20227;-78
2021/08/02 00:23:55;;;;;;;7.70;7.10;;;14.50;99.90;;;;;;4908781;29;20200;-77
2021/08/02 00:26:23;;;;;;;4.37;3.97;;;14.50;99.90;;;;;;4916544;29;20726;-78
2021/08/02 00:28:51;;;;;;;11.37;10.60;;;14.50;99.90;;;;;;4916652;29;20199;-77
2021/08/02 00:31:20;;;;;;;7.27;6.67;;;14.50;99.90;;;;;;4916730;29;20290;-78
2021/08/02 00:33:47;;;;;;;5.67;3.90;;;14.50;99.90;;;;;;4915238;29;20218;-77
2021/08/02 00:36:30;;;;;;;5.43;4.07;;;14.50;99.90;;;;;;4911301;29;20248;-78
2021/08/02 00:39:05;;;;;;;5.23;3.87;;;14.40;99.90;;;;;;4912696;29;20217;-78
2021/08/02 00:42:02;;;;;;;5.03;4.63;;;14.50;99.90;;;;;;4913897;29;20197;-77
2021/08/02 00:45:04;;;;;;;8.53;7.93;;;14.50;99.90;;;;;;4916770;29;20203;-77
2021/08/02 00:47:36;;;;;;;6.97;6.47;;;14.50;99.90;;;;;;4912319;29;20200;-77
2021/08/02 00:50:06;;;;;;;10.40;9.77;;;14.50;99.90;;;;;;4911668;29;20219;-77
2021/08/02 00:52:34;;;;;;;10.07;9.37;;;14.50;99.90;;;;;;4904774;29;20218;-77
2021/08/02 00:55:04;;;;;;;4.07;3.77;;;14.50;99.90;;;;;;4916577;29;20298;-77
2021/08/02 00:57:36;;;;;;;4.77;4.27;;;14.60;99.90;;;;;;4916735;29;20206;-77
2021/08/02 01:00:10;;;;;;;4.30;3.40;;;14.60;99.90;;;;;;4916431;29;20270;-77
2021/08/02 01:02:39;;;;;;;4.43;3.80;;;14.60;99.90;;;;;;4918357;29;20202;-77
2021/08/02 01:05:09;;;;;;;4.47;3.97;;;14.60;99.90;;;;;;4918569;29;20224;-76
2021/08/02 01:07:46;;;;;;;4.33;3.67;;;14.70;99.90;;;;;;4917649;29;20198;-77
2021/08/02 01:10:15;;;;;;;4.80;4.30;;;14.70;99.90;;;;;;4906150;29;20215;-78
2021/08/02 01:12:48;;;;;;;5.27;4.20;;;14.70;99.90;;;;;;4916994;29;20263;-78
2021/08/02 01:15:17;;;;;;;6.40;3.87;;;14.70;99.90;;;;;;4940430;23;20254;-79
2021/08/02 01:17:47;;;;;;;4.13;3.80;;;14.70;99.90;;;;;;4895168;29;20200;-79
2021/08/02 01:20:15;;;;;;;4.27;3.63;;;14.70;99.90;;;;;;4897694;29;20667;-80
2021/08/02 01:22:44;;;;;;;3.80;3.50;;;14.70;99.90;;;;;;4894907;29;20246;-80
2021/08/02 01:25:55;;;;;;;4.17;3.77;;;14.70;99.90;;;;;;4889664;29;20189;-80
2021/08/02 01:29:01;;;;;;;4.37;3.90;;;14.70;99.90;;;;;;4882777;29;20197;-80
2021/08/02 01:31:30;;;;;;;6.97;4.40;;;14.70;99.90;;;;;;4886680;29;20253;-79
2021/08/02 01:33:58;;;;;;;4.50;4.10;;;14.80;99.90;;;;;;4890742;29;20193;-79
2021/08/02 01:36:26;;;;;;;3.87;3.57;;;14.80;99.90;;;;;;4891288;29;20211;-80
2021/08/02 01:38:57;;;;;;;4.37;3.67;;;14.80;99.90;;;;;;4884854;29;20207;-80
2021/08/02 01:41:30;;;;;;;6.00;4.10;;;14.70;99.90;;;;;;4892500;29;20615;-80
2021/08/02 01:43:59;;;;;;;4.17;3.73;;;14.80;99.90;;;;;;4892145;29;20616;-79
2021/08/02 01:46:38;;;;;;;3.70;3.40;;;14.80;99.90;;;;;;4889622;29;20277;-80
2021/08/02 01:49:14;;;;;;;3.70;3.40;;;14.80;99.90;;;;;;4881994;29;20682;-80
2021/08/02 01:51:46;;;;;;;4.33;3.77;;;14.80;99.90;;;;;;4889982;29;20213;-80
2021/08/02 01:54:27;;;;;;;3.80;3.50;;;14.80;99.90;;;;;;4888611;29;20199;-80
2021/08/02 01:57:00;;;;;;;4.00;3.60;;;14.90;99.90;;;;;;4888417;29;20218;-80
2021/08/02 01:59:45;;;;;;;4.00;3.63;;;14.90;99.90;;;;;;4890596;29;20617;-79
2021/08/02 02:02:15;;;;;;;4.17;3.77;;;14.90;99.90;;;;;;4888976;29;20196;-79
2021/08/02 02:04:49;;;;;;;5.23;3.87;;;14.90;99.90;;;;;;4884069;29;20196;-79
2021/08/02 02:07:18;;;;;;;3.87;3.57;;;14.90;99.90;;;;;;4889231;29;20235;-80
2021/08/02 02:09:59;;;;;;;4.13;3.73;;;14.90;99.90;;;;;;4886288;29;20227;-81
2021/08/02 02:12:28;;;;;;;4.00;3.60;;;14.90;99.90;;;;;;4886719;29;20197;-80
2021/08/02 02:14:58;;;;;;;3.93;3.53;;;14.90;99.90;;;;;;4889799;29;20192;-80
2021/08/02 02:17:28;;;;;;;4.93;4.30;;;14.80;99.90;;;;;;4887445;29;20785;-80
2021/08/02 02:19:57;;;;;;;5.63;3.80;;;14.90;99.90;;;;;;4889491;29;20629;-79
2021/08/02 02:22:25;;;;;;;4.47;4.07;;;14.80;99.90;;;;;;4887588;29;20213;-80
2021/08/02 02:24:54;;;;;;;4.83;4.00;;;14.80;99.90;;;;;;4890850;29;20635;-80
2021/08/02 02:27:24;;;;;;;4.30;3.90;;;14.80;99.90;;;;;;4886338;29;20256;-79
2021/08/02 02:30:02;;;;;;;4.43;4.03;;;14.80;99.90;;;;;;4881385;29;20240;-80
2021/08/02 02:32:32;;;;;;;5.73;4.03;;;14.80;99.90;;;;;;4890777;29;20271;-79
2021/08/02 02:35:00;;;;;;;4.73;4.23;;;14.90;99.90;;;;;;4885466;29;20693;-80
2021/08/02 02:37:28;;;;;;;5.03;4.53;;;14.90;99.90;;;;;;4884799;29;20276;-80
2021/08/02 02:39:59;;;;;;;4.50;4.10;;;14.80;99.90;;;;;;4879620;29;20720;-80
2021/08/02 02:58:04;;;;;;;3.63;3.33;;;14.70;99.90;;;;;;4892406;29;20214;-81
2021/08/02 03:03:24;;;;;;;5.43;4.00;;;14.70;99.90;;;;;;4889908;29;20652;-75
2021/08/02 03:05:53;;;;;;;3.87;3.50;;;14.70;99.90;;;;;;4896263;29;20330;-78
2021/08/02 03:08:24;;;;;;;4.27;3.87;;;14.70;99.90;;;;;;4896297;29;20236;-79
2021/08/02 03:10:53;;;;;;;4.27;3.87;;;14.70;99.90;;;;;;4896064;29;20234;-79
2021/08/02 03:13:21;;;;;;;4.23;3.83;;;14.70;99.90;;;;;;4896424;29;20683;-79
2021/08/02 03:15:47;;;;;;;5.70;4.20;;;14.70;99.90;;;;;;4896009;29;20231;-78
2021/08/02 03:18:14;;;;;;;5.17;4.23;;;14.70;99.90;;;;;;4890572;29;20193;-78
2021/08/02 03:20:43;;;;;;;4.23;3.93;;;14.60;99.90;;;;;;4896821;29;20251;-78
2021/08/02 03:23:17;;;;;;;4.30;3.90;;;14.60;99.90;;;;;;4896423;29;20211;-77
2021/08/02 03:25:49;;;;;;;4.50;4.10;;;14.60;99.90;;;;;;4905208;29;20587;-78
2021/08/02 03:28:21;;;;;;;4.17;3.77;;;14.60;99.90;;;;;;4900852;29;20264;-79
2021/08/02 03:30:50;;;;;;;5.63;4.40;;;14.60;99.90;;;;;;4912467;29;20564;-78
2021/08/02 03:33:24;;;;;;;5.77;4.43;;;14.60;99.90;;;;;;4900747;29;20689;-79
2021/08/02 03:35:55;;;;;;;6.37;4.20;;;14.60;99.90;;;;;;4896048;29;20231;-79
2021/08/02 03:38:23;;;;;;;4.23;3.87;;;14.50;99.90;;;;;;4895718;29;20219;-79
2021/08/02 03:40:50;;;;;;;4.23;3.80;;;14.50;99.90;;;;;;4896085;29;20210;-79
2021/08/02 03:43:18;;;;;;;4.20;3.80;;;14.60;99.90;;;;;;4895551;29;20200;-79
2021/08/02 03:45:47;;;;;;;4.90;4.10;;;14.60;99.90;;;;;;4895613;29;20219;-79
2021/08/02 03:48:14;;;;;;;3.87;3.57;;;14.60;99.90;;;;;;4896766;29;20200;-79
2021/08/02 03:50:41;;;;;;;4.13;3.73;;;14.60;99.90;;;;;;4895563;29;20238;-79
2021/08/02 03:53:09;;;;;;;5.80;4.17;;;14.60;99.90;;;;;;4897016;29;20654;-79
2021/08/02 03:55:36;;;;;;;5.10;3.77;;;14.70;99.90;;;;;;4896655;29;20220;-79
2021/08/02 03:58:05;;;;;;;3.57;3.27;;;14.70;99.90;;;;;;4896567;29;20204;-79
2021/08/02 04:00:32;;;;;;;4.53;4.10;;;14.70;99.90;;;;;;4895045;29;20202;-79
2021/08/02 04:02:59;;;;;;;5.00;4.20;;;14.70;99.90;;;;;;4895848;29;20199;-79
2021/08/02 04:05:26;;;;;;;4.30;3.90;;;14.70;99.90;;;;;;4895586;29;20675;-78
2021/08/02 04:07:52;;;;;;;4.20;3.80;;;14.70;99.90;;;;;;4896826;29;20193;-79
2021/08/02 04:10:21;;;;;;;3.70;3.40;;;14.70;99.90;;;;;;4895587;29;20207;-79
2021/08/02 04:12:48;;;;;;;4.17;3.77;;;14.70;99.90;;;;;;4896631;29;20204;-79
2021/08/02 04:15:15;;;;;;;4.30;3.90;;;14.80;99.90;;;;;;4896444;29;20255;-80
2021/08/02 04:17:42;;;;;;;3.80;3.50;;;14.80;99.90;;;;;;4898980;29;20658;-82
2021/08/02 04:20:10;;;;;;;3.60;3.30;;;14.70;99.90;;;;;;4899349;29;20200;-79
2021/08/02 04:22:36;;;;;;;4.13;3.73;;;14.80;99.90;;;;;;4897836;29;20214;-81
2021/08/02 04:25:04;;;;;;;3.70;3.40;;;14.80;99.90;;;;;;4897478;29;20208;-80
2021/08/02 04:27:32;;;;;;;4.03;3.63;;;14.80;99.90;;;;;;4899103;29;20322;-80
2021/08/02 04:29:59;;;;;;;4.00;3.70;;;14.80;99.90;;;;;;4890194;29;20211;-81
2021/08/02 04:32:26;;;;;;;4.27;3.93;;;14.80;99.90;;;;;;4900821;29;20223;-80
2021/08/02 04:34:53;;;;;;;6.57;3.90;;;14.80;99.90;;;;;;4902782;29;20653;-79
2021/08/02 04:37:19;;;;;;;4.00;3.70;;;14.80;99.90;;;;;;4902789;29;20220;-80
2021/08/02 04:39:46;;;;;;;4.07;3.70;;;14.80;99.90;;;;;;4901289;29;20208;-79
2021/08/02 04:42:14;;;;;;;3.73;3.43;;;14.80;99.90;;;;;;4901619;29;20202;-80
2021/08/02 04:44:42;;;;;;;3.90;3.50;;;14.90;99.90;;;;;;4901018;29;20209;-80
2021/08/02 04:47:08;;;;;;;4.03;3.70;;;14.90;99.90;;;;;;4900437;29;20227;-80
2021/08/02 04:49:35;;;;;;;4.30;3.90;;;14.90;99.90;;;;;;4901892;29;20204;-79
2021/08/02 04:52:02;;;;;;;4.10;3.70;;;14.90;99.90;;;;;;4902316;29;20219;-79
2021/08/02 04:54:29;;;;;;;5.97;3.53;;;15.00;99.90;;;;;;4900379;29;20701;-79
2021/08/02 04:56:56;;;;;;;4.27;3.90;;;15.00;99.90;;;;;;4900320;29;20276;-79
2021/08/02 04:59:22;;;;;;;3.90;3.60;;;15.00;99.90;;;;;;4900251;29;20208;-79
2021/08/02 05:01:51;;;;;;;3.83;3.53;;;15.10;99.90;;;;;;4902105;29;20196;-80
2021/08/02 05:04:17;;;;;;;4.50;3.80;;;15.10;99.90;;;;;;4900630;29;20587;-79
2021/08/02 05:06:44;;;;;;;4.40;4.00;;;15.20;99.90;;;;;;4901595;29;20288;-80
2021/08/02 05:09:11;;;;;;;4.70;4.30;;;15.20;99.90;;;;;;4901743;29;20199;-80
2021/08/02 05:11:38;;;;;;;3.70;3.40;;;15.20;99.90;;;;;;4901729;29;20208;-79
2021/08/02 05:14:04;;;;;;;4.30;4.00;;;15.30;99.90;;;;;;4900152;29;20208;-79
2021/08/02 05:16:32;;;;;;;3.93;3.60;;;15.40;99.90;;;;;;4899941;29;20249;-81
2021/08/02 05:19:00;;;;;;;5.40;4.90;;;15.40;99.90;;;;;;4899470;29;20211;-79
2021/08/02 05:21:27;;;;;;;6.50;6.00;;;15.50;99.90;;;;;;4899402;29;20208;-78
2021/08/02 05:23:54;;;;;;;9.10;8.33;;;15.50;99.90;;;;;;4899802;29;20243;-79
2021/08/02 05:26:20;;;;;;;8.03;7.27;;;15.60;99.90;;;;;;4899175;29;20227;-79
2021/08/02 05:28:47;;;;;;;8.80;8.10;;;15.60;99.90;;;;;;4899996;29;20197;-80
2021/08/02 05:31:14;;;;;;;5.70;3.83;;;15.50;99.90;;;;;;4899531;29;20279;-79
2021/08/02 05:33:41;;;;;;;4.10;3.70;;;15.50;99.90;;;;;;4900362;29;20193;-79
2021/08/02 05:36:09;;;;;;;8.63;8.03;;;15.50;99.90;;;;;;4898724;29;20225;-79
2021/08/02 05:38:36;;;;;;;8.97;8.43;;;15.50;99.90;;;;;;4900024;29;20268;-79
2021/08/02 05:41:03;;;;;;;8.90;8.20;;;15.50;99.90;;;;;;4899199;29;20202;-79
2021/08/02 05:43:30;;;;;;;9.50;8.90;;;15.50;99.90;;;;;;4898591;29;20202;-79
2021/08/02 05:45:57;;;;;;;9.67;8.90;;;15.50;99.90;;;;;;4914506;29;20243;-79
2021/08/02 05:48:24;;;;;;;4.37;4.00;;;15.50;99.90;;;;;;4899273;29;20210;-79
2021/08/02 05:50:51;;;;;;;4.30;3.40;;;15.50;99.90;;;;;;4898557;29;20738;-79
2021/08/02 05:53:19;;;;;;;5.13;4.07;;;15.50;99.90;;;;;;4898676;29;20208;-79
2021/08/02 05:55:46;;;;;;;6.00;5.60;;;15.50;99.90;;;;;;4899560;29;20229;-79
2021/08/02 05:58:13;;;;;;;3.80;3.50;;;15.60;99.90;;;;;;4898047;29;20906;-79
2021/08/02 06:00:40;;;;;;;3.60;3.37;;;15.60;99.90;;;;;;4898188;29;20615;-79
2021/08/02 06:03:07;;;;;;;5.53;5.00;;;15.60;99.90;;;;;;4898032;29;20665;-77
2021/08/02 06:05:34;;;;;;;4.47;3.70;;;15.60;99.90;;;;;;4897762;29;20539;-80
2021/08/02 06:08:01;;;;;;;3.87;3.57;;;15.70;99.90;;;;;;4898567;29;20734;-79
2021/08/02 06:10:30;;;;;;;4.30;3.90;;;15.70;99.90;;;;;;4897917;29;20205;-79
2021/08/02 06:12:56;;;;;;;4.60;4.13;;;15.70;99.90;;;;;;4894116;29;20701;-79
2021/08/02 06:15:23;;;;;;;4.67;3.70;;;15.70;99.90;;;;;;4898811;29;20202;-80
2021/08/02 06:17:50;;;;;;;3.93;3.63;;;15.70;99.90;;;;;;4898356;29;20193;-79
2021/08/02 06:20:17;;;;;;;4.23;3.90;;;15.70;99.90;;;;;;4898517;29;20208;-79
2021/08/02 06:22:43;;;;;;;7.30;6.60;;;15.70;99.90;;;;;;4897316;29;20193;-79
2021/08/02 06:25:10;;;;;;;8.80;8.20;;;15.70;99.90;;;;;;4897286;29;20198;-80
2021/08/02 06:27:38;;;;;;;4.47;4.07;;;15.70;99.90;;;;;;4897069;29;20201;-79
2021/08/02 06:30:07;;;;;;;4.27;3.87;;;15.70;99.90;;;;;;4898624;29;20692;-79
2021/08/02 06:32:34;;;;;;;4.70;3.87;;;15.70;99.90;;;;;;4896989;29;20225;-79
2021/08/02 06:35:01;;;;;;;4.53;4.13;;;15.70;99.90;;;;;;4898435;29;20200;-80
2021/08/02 06:37:28;;;;;;;7.73;7.13;;;15.70;99.90;;;;;;4897080;29;20590;-79
2021/08/02 06:39:55;;;;;;;8.13;7.43;;;15.70;99.90;;;;;;4899291;29;20209;-79
2021/08/02 06:42:22;;;;;;;7.60;7.00;;;15.80;99.90;;;;;;4897602;29;20189;-79
2021/08/02 06:44:50;;;;;;;10.13;9.33;;;15.90;99.90;;;;;;4897906;29;20201;-79
2021/08/02 06:47:17;;;;;;;10.53;9.83;;;16.20;99.90;;;;;;4896675;29;20218;-79
2021/08/02 06:49:43;;;;;;;8.10;7.43;;;16.40;99.90;;;;;;4897832;29;20201;-79
2021/08/02 06:52:10;;;;;;;8.87;8.27;;;16.70;99.90;;;;;;4898186;29;20237;-80
2021/08/02 06:54:37;;;;;;;6.77;6.37;;;17.00;99.90;;;;;;4896025;29;20209;-79
2021/08/02 06:57:04;;;;;;;11.43;10.73;;;17.40;99.90;;;;;;4896234;29;20282;-79
2021/08/02 06:59:31;;;;;;;4.63;3.87;;;18.10;99.90;;;;;;4898159;29;20196;-81
2021/08/02 07:01:59;;;;;;;7.17;6.67;;;19.00;99.90;;;;;;4897957;29;20205;-80
2021/08/02 07:04:26;;;;;;;8.43;7.73;;;19.30;99.90;;;;;;4898594;29;20207;-80
2021/08/02 07:06:53;;;;;;;6.60;6.20;;;19.50;99.90;;;;;;4896185;29;20224;-82
2021/08/02 07:09:20;;;;;;;7.70;7.10;;;19.70;99.90;;;;;;4896673;29;20257;-79
2021/08/02 07:11:47;;;;;;;7.33;6.83;;;19.50;99.90;;;;;;4897391;29;20269;-79
2021/08/02 07:14:13;;;;;;;6.43;5.93;;;19.60;99.90;;;;;;4896480;29;20663;-80
2021/08/02 07:16:40;;;;;;;3.40;3.10;;;19.50;99.90;;;;;;4914454;23;20232;-78
2021/08/02 07:19:08;;;;;;;5.80;5.30;;;19.50;99.90;;;;;;4910138;29;20210;-78
2021/08/02 07:21:35;;;;;;;6.17;5.63;;;19.50;99.90;;;;;;4906903;29;20195;-78
2021/08/02 07:24:02;;;;;;;5.70;5.20;;;19.50;99.90;;;;;;4914622;29;20194;-78
2021/08/02 07:26:29;;;;;;;5.67;5.27;;;19.50;99.90;;;;;;4907303;29;20230;-77
2021/08/02 07:28:58;;;;;;;5.23;4.83;;;19.60;99.90;;;;;;4888921;29;20210;-78
2021/08/02 07:31:25;;;;;;;4.10;3.70;;;19.70;99.90;;;;;;4884529;29;20226;-78
2021/08/02 07:33:52;;;;;;;3.27;3.07;;;19.70;99.90;;;;;;4891964;29;20225;-78
2021/08/02 07:36:20;;;;;;;3.80;3.50;;;19.70;99.90;;;;;;4888613;29;20265;-78
2021/08/02 07:38:47;;;;;;;3.70;3.07;;;19.80;99.90;;;;;;4887506;29;20196;-78
2021/08/02 07:41:14;;;;;;;4.40;3.33;;;19.90;99.90;;;;;;4890720;29;20209;-78
2021/08/02 07:43:41;;;;;;;3.80;3.50;;;19.90;99.90;;;;;;4890800;29;20199;-78
2021/08/02 07:46:08;;;;;;;4.63;3.00;;;20.20;99.90;;;;;;4900395;29;20243;-78
2021/08/02 07:48:35;;;;;;;5.27;3.27;;;20.50;99.90;;;;;;4899913;29;20198;-78
2021/08/02 07:51:02;;;;;;;3.80;2.90;;;20.60;99.90;;;;;;4892447;29;20591;-78
2021/08/02 07:53:35;;;;;;;2.80;2.60;;;20.90;99.90;;;;;;4891452;29;20216;-78
2021/08/02 07:56:02;;;;;;;5.93;3.07;;;21.20;99.90;;;;;;4876105;29;20226;-78
2021/08/02 07:58:29;;;;;;;3.07;2.77;;;21.40;99.90;;;;;;4888863;29;20205;-77
2021/08/02 08:00:56;;;;;;;2.93;2.60;;;21.50;99.90;;;;;;4896068;29;20199;-79
2021/08/02 08:03:25;;;;;;;3.93;3.00;;;21.80;99.90;;;;;;4887108;29;20638;-78
2021/08/02 08:05:52;;;;;;;3.07;2.87;;;21.90;99.90;;;;;;4900691;29;20192;-78
2021/08/02 08:08:20;;;;;;;3.50;3.20;;;22.10;99.90;;;;;;4890456;29;20611;-79
2021/08/02 08:10:49;;;;;;;2.90;2.70;;;22.50;99.90;;;;;;4875129;29;20278;-77
2021/08/02 08:13:16;;;;;;;3.67;2.70;;;22.90;99.90;;;;;;4890500;29;20224;-77
2021/08/02 08:15:43;;;;;;;2.93;2.70;;;23.10;99.90;;;;;;4892304;29;20675;-78
2021/08/02 08:18:10;;;;;;;6.40;5.80;;;23.30;99.90;;;;;;4900904;29;20658;-76
2021/08/02 08:20:37;;;;;;;6.27;2.77;;;23.40;99.90;;;;;;4895581;29;20204;-78
2021/08/02 08:23:04;;;;;;;3.07;2.77;;;23.40;99.90;;;;;;4889578;29;20264;-78
2021/08/02 08:25:31;;;;;;;3.97;3.67;;;23.40;99.90;;;;;;4895152;29;20204;-77
2021/08/02 08:27:59;;;;;;;3.53;3.20;;;23.40;99.90;;;;;;4893928;29;20221;-78
2021/08/02 08:30:27;;;;;;;4.07;3.77;;;23.80;99.90;;;;;;4893251;29;20201;-78
2021/08/02 08:32:54;;;;;;;3.13;2.60;;;23.90;99.90;;;;;;4900926;29;20220;-78
2021/08/02 08:35:22;;;;;;;2.93;2.73;;;23.90;99.90;;;;;;4896504;29;20200;-78
2021/08/02 08:37:49;;;;;;;7.30;6.60;;;24.60;99.90;;;;;;4904328;29;20231;-79
2021/08/02 08:40:16;;;;;;;5.43;5.13;;;25.00;99.90;;;;;;4894019;29;20196;-78
2021/08/02 08:42:44;;;;;;;2.97;2.77;;;25.20;99.90;;;;;;4896269;29;20193;-77
2021/08/02 08:45:13;;;;;;;3.53;3.23;;;25.60;99.90;;;;;;4895443;29;20197;-77
2021/08/02 08:47:40;;;;;;;2.93;2.53;;;25.70;99.90;;;;;;4895006;29;20221;-77
2021/08/02 08:50:08;;;;;;;2.70;2.60;;;26.00;99.90;;;;;;4897836;29;20208;-77
2021/08/02 08:52:36;;;;;;;3.10;2.90;;;26.10;99.90;;;;;;4894462;29;20214;-78
2021/08/02 08:55:07;;;;;;;2.77;2.50;;;26.30;99.90;;;;;;4905351;29;20201;-78
2021/08/02 08:57:33;;;;;;;3.57;3.27;;;26.30;99.90;;;;;;4902213;29;20220;-78
2021/08/02 09:00:00;;;;;;;7.27;6.40;;;26.50;99.90;;;;;;4894239;29;20220;-78
2021/08/02 09:02:30;;;;;;;8.60;8.10;;;26.60;99.90;;;;;;4896790;29;20224;-78
2021/08/02 09:04:58;;;;;;;8.57;7.97;;;26.40;99.90;;;;;;4891648;29;20682;-78
2021/08/02 09:07:35;;;;;;;9.00;8.50;;;25.70;99.90;;;;;;4899209;29;20228;-77
2021/08/02 09:10:04;;;;;;;9.10;8.60;;;25.20;99.90;;;;;;4881907;29;20200;-78
2021/08/02 09:12:32;;;;;;;9.23;8.63;;;24.60;99.90;;;;;;4892953;29;20216;-78
2021/08/02 09:15:00;;;;;;;8.70;8.20;;;24.00;99.90;;;;;;4899943;29;20252;-78
2021/08/02 09:17:30;;;;;;;8.10;7.60;;;23.50;99.90;;;;;;4892843;29;20243;-78
2021/08/02 09:19:58;;;;;;;7.60;7.20;;;23.10;99.90;;;;;;4890590;29;20210;-78
2021/08/02 09:22:29;;;;;;;7.50;6.90;;;22.60;99.90;;;;;;4891043;29;20197;-77
2021/08/02 09:25:08;;;;;;;9.20;8.70;;;22.30;99.90;;;;;;4897623;29;20196;-78
2021/08/02 09:27:35;;;;;;;9.70;9.00;;;22.20;99.90;;;;;;4895211;29;20216;-78
2021/08/02 09:30:13;;;;;;;9.00;8.50;;;22.40;99.90;;;;;;4892357;29;20221;-78
2021/08/02 09:32:52;;;;;;;9.27;8.60;;;22.60;99.90;;;;;;4887162;29;20218;-78
2021/08/02 09:35:27;;;;;;;10.10;9.40;;;22.70;99.90;;;;;;4895651;29;20200;-78
2021/08/02 09:37:55;;;;;;;9.83;9.23;;;22.90;99.90;;;;;;4892368;29;20224;-79
2021/08/02 09:40:22;;;;;;;6.30;5.80;;;23.10;99.90;;;;;;4895999;29;20213;-78
2021/08/02 09:42:57;;;;;;;5.30;4.90;;;23.20;99.90;;;;;;4899775;29;20193;-78
2021/08/02 09:45:27;;;;;;;4.93;4.50;;;23.70;99.90;;;;;;4896451;29;20199;-77
2021/08/02 09:47:55;;;;;;;4.70;4.40;;;24.00;99.90;;;;;;4886481;29;20659;-78
2021/08/02 09:50:29;;;;;;;4.50;4.20;;;24.40;99.90;;;;;;4906354;29;20192;-78
2021/08/02 09:52:57;;;;;;;2.70;2.60;;;24.80;99.90;;;;;;4895861;29;20212;-81
2021/08/02 09:55:24;;;;;;;4.07;3.70;;;25.20;99.90;;;;;;4900324;29;20200;-79
2021/08/02 09:57:52;;;;;;;4.97;4.57;;;25.40;99.90;;;;;;4894510;29;20239;-78
2021/08/02 10:00:20;;;;;;;5.60;5.20;;;25.50;99.90;;;;;;4902093;29;20308;-78
2021/08/02 10:02:48;;;;;;;5.20;4.80;;;25.70;99.90;;;;;;4889962;29;20631;-78
2021/08/02 10:05:17;;;;;;;5.80;5.40;;;25.80;99.90;;;;;;4897034;29;20209;-78
2021/08/02 10:07:45;;;;;;;5.23;4.90;;;25.90;99.90;;;;;;4899508;29;20220;-78
2021/08/02 10:10:13;;;;;;;5.30;4.80;;;26.00;99.90;;;;;;4905805;29;20185;-78
2021/08/02 10:12:41;;;;;;;3.53;3.23;;;26.20;99.90;;;;;;4904785;29;20218;-77
2021/08/02 10:15:13;;;;;;;3.23;3.03;;;26.10;99.90;;;;;;4899501;29;20208;-78
2021/08/02 10:17:41;;;;;;;2.97;2.77;;;26.00;99.90;;;;;;4898093;29;20276;-78
2021/08/02 10:20:19;;;;;;;7.50;7.00;;;25.60;99.90;;;;;;4893325;29;20204;-79
2021/08/02 10:22:46;;;;;;;8.50;8.00;;;25.50;99.90;;;;;;4892572;29;20198;-78
2021/08/02 10:25:13;;;;;;;5.27;4.87;;;25.40;99.90;;;;;;4899792;29;20267;-78
2021/08/02 10:27:41;;;;;;;3.70;3.23;;;26.00;99.90;;;;;;4897463;29;20218;-78
2021/08/02 10:30:23;;;;;;;2.53;2.13;;;26.10;99.90;;;;;;4901477;29;20214;-78
2021/08/02 10:32:55;;;;;;;8.27;7.57;;;25.80;99.90;;;;;;4899922;29;20227;-78
2021/08/02 10:35:37;;;;;;;7.83;7.33;;;25.50;99.90;;;;;;4891618;29;20207;-78
2021/08/02 10:38:06;;;;;;;7.70;7.20;;;25.30;99.90;;;;;;4886572;29;20200;-79
2021/08/02 10:40:51;;;;;;;7.60;7.20;;;25.10;99.90;;;;;;4898791;29;20197;-78
2021/08/02 10:43:28;;;;;;;7.50;7.10;;;25.00;99.90;;;;;;4892374;29;20189;-78
2021/08/02 10:45:56;;;;;;;7.77;7.37;;;25.10;99.90;;;;;;4891795;29;20196;-78
2021/08/02 10:48:28;;;;;;;8.00;7.50;;;25.20;99.90;;;;;;4889595;29;20192;-78
2021/08/02 10:50:57;;;;;;;8.00;7.50;;;25.10;99.90;;;;;;4894670;29;20199;-78
2021/08/02 10:53:24;;;;;;;7.70;7.20;;;25.10;99.90;;;;;;4893678;29;20236;-78
2021/08/02 10:55:52;;;;;;;7.97;7.47;;;25.10;99.90;;;;;;4893489;29;20212;-78
2021/08/02 10:58:27;;;;;;;7.57;7.10;;;24.90;99.90;;;;;;4893402;29;20846;-78
2021/08/02 11:00:58;;;;;;;7.70;7.20;;;24.50;99.90;;;;;;4899448;29;20207;-78
2021/08/02 11:03:33;;;;;;;8.03;7.33;;;24.30;99.90;;;;;;4901870;29;20203;-78
2021/08/02 11:06:11;;;;;;;8.40;7.70;;;24.20;99.90;;;;;;4901018;29;20216;-79
2021/08/02 11:08:45;;;;;;;8.27;7.77;;;24.20;99.90;;;;;;4887861;29;20559;-78
2021/08/02 11:11:20;;;;;;;3.97;3.77;;;24.20;99.90;;;;;;4890964;29;20234;-78
2021/08/02 11:13:47;;;;;;;3.30;2.97;;;24.30;99.90;;;;;;4891207;29;20225;-78
2021/08/02 11:16:14;;;;;;;7.70;7.20;;;24.20;99.90;;;;;;4896066;29;20256;-78
2021/08/02 11:18:44;;;;;;;2.70;2.50;;;24.40;99.90;;;;;;4881203;29;20200;-78
2021/08/02 11:21:25;;;;;;;3.67;3.47;;;24.70;99.90;;;;;;4890033;29;20201;-78
2021/08/02 11:23:54;;;;;;;4.83;4.53;;;24.80;99.90;;;;;;4885472;29;20199;-78
2021/08/02 11:26:21;;;;;;;8.10;7.50;;;24.80;99.90;;;;;;4894222;29;20705;-78
2021/08/02 11:28:50;;;;;;;8.20;7.50;;;24.80;99.90;;;;;;4889945;29;20287;-78
2021/08/02 11:31:18;;;;;;;7.00;6.60;;;24.70;99.90;;;;;;4888703;29;20214;-78
2021/08/02 11:33:45;;;;;;;7.10;6.70;;;24.50;99.90;;;;;;4888139;29;20217;-78
2021/08/02 11:36:17;;;;;;;7.80;7.20;;;24.30;99.90;;;;;;4892742;29;20218;-77
2021/08/02 11:38:46;;;;;;;7.50;7.10;;;24.20;99.90;;;;;;4893132;29;20201;-77
2021/08/02 11:41:24;;;;;;;7.47;6.97;;;24.20;99.90;;;;;;4884075;29;20584;-78
2021/08/02 11:43:51;;;;;;;7.50;7.00;;;24.10;99.90;;;;;;4892482;29;20205;-77
2021/08/02 11:46:18;;;;;;;7.20;6.80;;;24.00;99.90;;;;;;4888712;29;20597;-78
2021/08/02 11:48:46;;;;;;;7.10;6.70;;;24.00;99.90;;;;;;4887688;29;20202;-78
2021/08/02 11:51:13;;;;;;;6.93;6.53;;;23.90;99.90;;;;;;4890002;29;20206;-78
2021/08/02 11:53:40;;;;;;;7.43;6.93;;;23.80;99.90;;;;;;4893505;29;20761;-78
2021/08/02 11:56:09;;;;;;;7.60;7.20;;;23.90;99.90;;;;;;4885746;29;20213;-78
2021/08/02 11:58:40;;;;;;;7.30;6.70;;;23.80;99.90;;;;;;4877641;29;20200;-78
2021/08/02 12:01:07;;;;;;;7.60;7.10;;;23.70;99.90;;;;;;4891233;29;20201;-79
2021/08/02 12:03:35;;;;;;;7.43;7.03;;;23.60;99.90;;;;;;4890561;29;20351;-78
2021/08/02 12:06:03;;;;;;;7.80;7.30;;;23.60;99.90;;;;;;4886371;29;20216;-79
2021/08/02 12:08:30;;;;;;;2.93;2.73;;;23.60;99.90;;;;;;4882657;29;20250;-78
2021/08/02 12:10:59;;;;;;;2.57;2.37;;;23.50;99.90;;;;;;4879670;29;20200;-78
2021/08/02 12:13:40;;;;;;;2.13;2.03;;;23.40;99.90;;;;;;4890622;29;20289;-77
2021/08/02 12:16:08;;;;;;;7.03;6.63;;;23.40;99.90;;;;;;4878712;29;20256;-78
2021/08/02 12:18:35;;;;;;;6.13;5.50;;;23.40;99.90;;;;;;4884348;29;20272;-78
2021/08/02 12:21:13;;;;;;;6.20;5.80;;;23.70;99.90;;;;;;4897924;29;20563;-77
2021/08/02 12:23:41;;;;;;;6.40;6.00;;;23.80;99.90;;;;;;4883259;29;20563;-78
2021/08/02 12:26:18;;;;;;;7.80;7.30;;;24.00;99.90;;;;;;4883608;29;20232;-78
2021/08/02 12:28:48;;;;;;;9.00;8.40;;;24.10;99.90;;;;;;4890413;29;20533;-78
2021/08/02 12:31:17;;;;;;;8.80;8.30;;;24.00;99.90;;;;;;4892759;29;20196;-78
2021/08/02 12:33:46;;;;;;;9.20;8.60;;;24.00;99.90;;;;;;4893539;29;20694;-78
2021/08/02 12:36:14;;;;;;;8.33;7.83;;;24.00;99.90;;;;;;4888227;29;20218;-78
2021/08/02 12:38:48;;;;;;;8.10;7.50;;;24.00;99.90;;;;;;4882753;29;20261;-78
2021/08/02 12:41:16;;;;;;;7.43;7.03;;;24.00;99.90;;;;;;4891298;29;20203;-78
2021/08/02 12:43:44;;;;;;;8.00;7.50;;;24.20;99.90;;;;;;4889458;29;20193;-77
2021/08/02 12:46:13;;;;;;;8.40;7.90;;;24.20;99.90;;;;;;4887937;29;20223;-78
2021/08/02 12:48:40;;;;;;;6.87;6.47;;;24.00;99.90;;;;;;4885725;29;20190;-77
2021/08/02 12:51:08;;;;;;;6.60;6.20;;;23.70;99.90;;;;;;4889647;29;20194;-78
2021/08/02 12:53:35;;;;;;;3.80;3.60;;;23.50;99.90;;;;;;4886048;29;20580;-79
2021/08/02 12:56:02;;;;;;;3.70;3.40;;;23.40;99.90;;;;;;4899942;29;20223;-78
2021/08/02 12:58:28;;;;;;;6.20;5.90;;;23.50;99.90;;;;;;4894627;29;20201;-78
2021/08/02 13:00:55;;;;;;;3.50;3.30;;;23.60;99.90;;;;;;4877008;29;20193;-77
2021/08/02 13:03:23;;;;;;;3.20;2.30;;;23.60;99.90;;;;;;4890861;29;20201;-78
2021/08/02 13:05:50;;;;;;;1.93;1.83;;;23.60;99.90;;;;;;4889351;29;20246;-79
2021/08/02 13:08:17;;;;;;;2.50;2.30;;;23.70;99.90;;;;;;4892025;29;20573;-78
2021/08/02 13:10:44;;;;;;;2.00;1.90;;;23.70;99.90;;;;;;4880445;29;20723;-77
2021/08/02 13:13:10;;;;;;;2.40;2.20;;;23.60;99.90;;;;;;4888829;29;20300;-78
2021/08/02 13:15:37;;;;;;;2.87;2.30;;;23.50;99.90;;;;;;4888969;29;20296;-78